Time;durP1;ratioP1;P1;durP2;ratioP2;P2;SDS_P1;SDS_P2;PMS_P1;PMS_P2;Temp;Humidity;BMP_temperature;BMP_pressure;BME280_temperature;BME280_humidity;BME280_pressure;Samples;Min_cycle;Max_cycle;Signal;HPM_P1;HPM_P2
2023/06/06 00:00:19;;;;;;;;;;;17.00;69.40;;;;;;5066888;28;19920;-84
2023/06/06 00:02:45;;;;;;;;;;;16.90;70.00;;;;;;5064017;28;19909;-84
2023/06/06 00:05:11;;;;;;;;;;;16.80;70.10;;;;;;5066188;28;19920;-82
2023/06/06 00:07:37;;;;;;;;;;;16.80;70.60;;;;;;5069794;28;20178;-82
2023/06/06 00:10:03;;;;;;;;;;;16.90;70.40;;;;;;5091509;28;19908;-81
2023/06/06 00:12:28;;;;;;;;;;;16.90;70.40;;;;;;5092304;28;19949;-82
2023/06/06 00:14:56;;;;;;;;;;;16.90;70.70;;;;;;5077460;28;19916;-82
2023/06/06 00:17:22;;;;;;;;;;;16.80;71.10;;;;;;5069128;28;19969;-82
2023/06/06 00:19:50;;;;;;;;;;;16.70;71.20;;;;;;5085438;28;20029;-82
2023/06/06 00:22:16;;;;;;;;;;;16.70;71.50;;;;;;5071802;28;19916;-82
2023/06/06 00:24:41;;;;;;;;;;;16.70;71.50;;;;;;5071961;28;20449;-82
2023/06/06 00:27:06;;;;;;;;;;;16.60;71.90;;;;;;5070799;28;20231;-82
2023/06/06 00:29:32;;;;;;;;;;;16.60;72.40;;;;;;5067031;28;19913;-82
2023/06/06 00:31:57;;;;;;;;;;;16.60;72.40;;;;;;5075674;28;19928;-83
2023/06/06 00:34:23;;;;;;;;;;;16.60;72.60;;;;;;5070981;28;19917;-82
2023/06/06 00:36:48;;;;;;;;;;;16.50;72.70;;;;;;5066851;28;19970;-83
2023/06/06 00:39:14;;;;;;;;;;;16.50;73.30;;;;;;5069075;28;20786;-82
2023/06/06 00:41:40;;;;;;;;;;;16.50;73.30;;;;;;5084222;28;19916;-82
2023/06/06 00:44:24;;;;;;;;;;;16.40;73.60;;;;;;5090463;28;20358;-82
2023/06/06 00:46:50;;;;;;;;;;;16.40;73.70;;;;;;5076508;28;19916;-82
2023/06/06 00:49:17;;;;;;;;;;;16.50;73.20;;;;;;5069642;28;20274;-83
2023/06/06 00:51:43;;;;;;;;;;;16.40;73.70;;;;;;5071509;28;19982;-82
2023/06/06 00:54:12;;;;;;;;;;;16.40;73.70;;;;;;5070110;28;19912;-83
2023/06/06 00:56:38;;;;;;;;;;;16.40;73.80;;;;;;5071425;28;19974;-82
2023/06/06 00:59:05;;;;;;;;;;;16.30;74.00;;;;;;5068621;28;19920;-82
2023/06/06 01:01:33;;;;;;;;;;;16.30;74.20;;;;;;5070550;28;19916;-82
2023/06/06 01:04:04;;;;;;;;;;;16.20;74.20;;;;;;5064758;28;19927;-82
2023/06/06 01:06:36;;;;;;;;;;;16.10;74.40;;;;;;5068846;28;19996;-82
2023/06/06 01:09:04;;;;;;;;;;;16.10;74.70;;;;;;5069747;28;19916;-82
2023/06/06 01:11:36;;;;;;;;;;;16.00;74.80;;;;;;5071619;28;19952;-82
2023/06/06 01:14:11;;;;;;;;;;;16.00;75.00;;;;;;5064114;28;20428;-82
2023/06/06 01:16:39;;;;;;;;;;;16.00;75.10;;;;;;5068078;28;19920;-82
2023/06/06 01:19:09;;;;;;;;;;;15.80;75.40;;;;;;5073847;28;19995;-83
2023/06/06 01:21:40;;;;;;;;;;;15.90;75.10;;;;;;5067145;28;19919;-82
2023/06/06 01:24:06;;;;;;;;;;;16.00;74.90;;;;;;5069207;28;19912;-83
2023/06/06 01:26:37;;;;;;;;;;;15.90;75.40;;;;;;5071718;28;19923;-83
2023/06/06 01:29:03;;;;;;;;;;;15.90;75.60;;;;;;5069168;28;19931;-83
2023/06/06 01:31:36;;;;;;;;;;;16.00;75.00;;;;;;5072458;28;20293;-83
2023/06/06 01:34:06;;;;;;;;;;;15.90;74.90;;;;;;5072843;28;19950;-83
2023/06/06 01:36:32;;;;;;;;;;;15.70;75.30;;;;;;5067419;28;19998;-83
2023/06/06 01:39:03;;;;;;;;;;;15.60;75.40;;;;;;5067802;28;19916;-82
2023/06/06 01:41:29;;;;;;;;;;;15.60;75.40;;;;;;5067334;28;20278;-82
2023/06/06 01:43:55;;;;;;;;;;;15.60;75.80;;;;;;5069027;28;20272;-83
2023/06/06 01:46:22;;;;;;;;;;;15.60;75.80;;;;;;5071476;28;19927;-82
2023/06/06 01:48:48;;;;;;;;;;;15.50;75.70;;;;;;5066534;28;19931;-82
2023/06/06 01:51:13;;;;;;;;;;;15.50;75.90;;;;;;5069275;28;20003;-82
2023/06/06 01:53:39;;;;;;;;;;;15.60;75.70;;;;;;5072815;28;19924;-83
2023/06/06 01:56:05;;;;;;;;;;;15.40;75.70;;;;;;5066338;28;19952;-82
2023/06/06 01:58:30;;;;;;;;;;;15.40;75.80;;;;;;5066896;28;19916;-82
2023/06/06 02:00:56;;;;;;;;;;;15.30;76.10;;;;;;5073039;28;20059;-82
2023/06/06 02:03:22;;;;;;;;;;;15.30;76.00;;;;;;5073664;28;20262;-82
2023/06/06 02:05:48;;;;;;;;;;;15.30;76.30;;;;;;5068320;28;19916;-82
2023/06/06 02:08:14;;;;;;;;;;;15.30;76.30;;;;;;5094863;28;19915;-82
2023/06/06 02:10:39;;;;;;;;;;;15.20;76.20;;;;;;5094840;28;19908;-82
2023/06/06 02:13:05;;;;;;;;;;;15.20;76.30;;;;;;5091272;28;20438;-82
2023/06/06 02:15:30;;;;;;;;;;;15.10;76.30;;;;;;5061306;28;20273;-82
2023/06/06 02:17:56;;;;;;;;;;;15.10;76.30;;;;;;5067827;28;20395;-82
2023/06/06 02:20:21;;;;;;;;;;;15.10;76.40;;;;;;5065601;28;20097;-82
2023/06/06 02:22:46;;;;;;;;;;;15.10;76.60;;;;;;5066623;28;19966;-82
2023/06/06 02:25:13;;;;;;;;;;;15.10;76.30;;;;;;5062298;28;20290;-82
2023/06/06 02:27:38;;;;;;;;;;;15.00;76.80;;;;;;5068368;28;20499;-82
2023/06/06 02:30:07;;;;;;;;;;;14.90;76.80;;;;;;5071123;28;19908;-83
2023/06/06 02:32:33;;;;;;;;;;;15.00;76.80;;;;;;5067685;28;19916;-82
2023/06/06 02:35:03;;;;;;;;;;;14.90;77.20;;;;;;5072893;28;19931;-82
2023/06/06 02:37:29;;;;;;;;;;;14.90;76.80;;;;;;5070202;28;19989;-82
2023/06/06 02:39:55;;;;;;;;;;;14.80;76.80;;;;;;5069530;28;20022;-82
2023/06/06 02:42:21;;;;;;;;;;;14.70;76.90;;;;;;5071665;28;19912;-82
2023/06/06 02:44:46;;;;;;;;;;;14.70;76.80;;;;;;5071393;28;19908;-81
2023/06/06 02:47:12;;;;;;;;;;;14.60;77.10;;;;;;5062906;28;20011;-83
2023/06/06 02:49:37;;;;;;;;;;;14.60;77.30;;;;;;5068886;28;20290;-82
2023/06/06 02:52:03;;;;;;;;;;;14.60;77.60;;;;;;5070046;28;20009;-82
2023/06/06 02:54:28;;;;;;;;;;;14.60;77.40;;;;;;5072310;28;20416;-82
2023/06/06 02:56:53;;;;;;;;;;;14.50;77.30;;;;;;5068626;28;19912;-81
2023/06/06 02:59:19;;;;;;;;;;;14.50;77.30;;;;;;5072268;28;20334;-82
2023/06/06 03:01:44;;;;;;;;;;;14.50;77.40;;;;;;5069815;28;19931;-82
2023/06/06 03:04:13;;;;;;;;;;;14.50;77.70;;;;;;5069099;28;19951;-82
2023/06/06 03:06:39;;;;;;;;;;;14.40;77.90;;;;;;5069691;28;19927;-82
2023/06/06 03:09:06;;;;;;;;;;;14.40;77.70;;;;;;5077837;28;19980;-82
2023/06/06 03:11:31;;;;;;;;;;;14.30;77.80;;;;;;5070270;28;19919;-83
2023/06/06 03:13:57;;;;;;;;;;;14.30;78.00;;;;;;5072575;28;20018;-83
2023/06/06 03:16:26;;;;;;;;;;;14.30;78.20;;;;;;5066668;28;19920;-82
2023/06/06 03:18:52;;;;;;;;;;;14.30;78.20;;;;;;5069432;28;20424;-82
2023/06/06 03:21:18;;;;;;;;;;;14.30;78.20;;;;;;5064845;28;19913;-82
2023/06/06 03:23:44;;;;;;;;;;;14.20;78.10;;;;;;5060035;28;19935;-82
2023/06/06 03:26:09;;;;;;;;;;;14.20;78.30;;;;;;5066271;28;19984;-82
2023/06/06 03:28:35;;;;;;;;;;;14.20;78.00;;;;;;5065657;28;19912;-83
2023/06/06 03:31:04;;;;;;;;;;;14.30;78.10;;;;;;5070582;28;19986;-82
2023/06/06 03:33:30;;;;;;;;;;;14.20;78.10;;;;;;5061648;28;19968;-82
2023/06/06 03:35:56;;;;;;;;;;;14.10;78.00;;;;;;5068590;28;19912;-81
2023/06/06 03:38:21;;;;;;;;;;;14.10;78.00;;;;;;5069043;28;19912;-82
2023/06/06 03:40:47;;;;;;;;;;;14.00;78.30;;;;;;5074872;28;19913;-82
2023/06/06 03:43:12;;;;;;;;;;;14.00;78.30;;;;;;5072784;28;19913;-81
2023/06/06 03:45:38;;;;;;;;;;;13.90;78.30;;;;;;5071222;28;19917;-81
2023/06/06 03:48:03;;;;;;;;;;;13.90;78.50;;;;;;5080700;28;19913;-81
2023/06/06 03:50:29;;;;;;;;;;;13.80;78.90;;;;;;5065625;28;20432;-81
2023/06/06 03:52:55;;;;;;;;;;;14.00;78.70;;;;;;5070820;28;21558;-81
2023/06/06 03:55:20;;;;;;;;;;;14.00;79.10;;;;;;5068712;28;19917;-82
2023/06/06 03:57:46;;;;;;;;;;;13.90;78.90;;;;;;5073146;28;19908;-82
2023/06/06 04:00:13;;;;;;;;;;;14.00;78.50;;;;;;5095104;28;19903;-82
2023/06/06 04:02:39;;;;;;;;;;;13.90;78.40;;;;;;5100363;28;19939;-81
2023/06/06 04:05:05;;;;;;;;;;;14.00;78.70;;;;;;5090845;28;19964;-82
2023/06/06 04:07:31;;;;;;;;;;;14.00;78.70;;;;;;5070528;28;19998;-82
2023/06/06 04:09:57;;;;;;;;;;;14.10;78.00;;;;;;5072957;28;19908;-82
2023/06/06 04:12:22;;;;;;;;;;;14.00;78.20;;;;;;5070800;28;19927;-83
2023/06/06 04:14:47;;;;;;;;;;;14.00;78.50;;;;;;5083168;28;20357;-83
2023/06/06 04:17:13;;;;;;;;;;;14.10;78.50;;;;;;5073220;28;20004;-83
2023/06/06 04:19:39;;;;;;;;;;;14.10;77.80;;;;;;5072523;28;19923;-84
2023/06/06 04:22:05;;;;;;;;;;;14.00;78.00;;;;;;5084518;28;19908;-84
2023/06/06 04:24:30;;;;;;;;;;;14.00;78.40;;;;;;5094338;28;20444;-84
2023/06/06 04:26:57;;;;;;;;;;;14.10;77.70;;;;;;5094885;28;20097;-83
2023/06/06 04:29:23;;;;;;;;;;;14.00;77.90;;;;;;5075878;28;20313;-83
2023/06/06 04:31:48;;;;;;;;;;;14.00;78.60;;;;;;5073620;28;19912;-83
2023/06/06 04:34:14;;;;;;;;;;;14.00;78.70;;;;;;5084960;28;19999;-83
2023/06/06 04:36:40;;;;;;;;;;;14.10;78.20;;;;;;5072810;28;19917;-83
2023/06/06 04:39:06;;;;;;;;;;;14.10;78.10;;;;;;5072435;28;20002;-83
2023/06/06 04:41:33;;;;;;;;;;;14.20;77.90;;;;;;5067827;28;19965;-82
2023/06/06 04:44:01;;;;;;;;;;;14.10;77.90;;;;;;5065004;28;19924;-83
2023/06/06 04:46:29;;;;;;;;;;;14.10;78.70;;;;;;5067022;28;20381;-82
2023/06/06 04:48:55;;;;;;;;;;;14.10;78.90;;;;;;5083678;28;20385;-82
2023/06/06 04:51:22;;;;;;;;;;;14.30;77.70;;;;;;5071319;28;20003;-83
2023/06/06 04:53:50;;;;;;;;;;;14.30;77.00;;;;;;5068201;28;19913;-83
2023/06/06 04:56:17;;;;;;;;;;;14.30;77.70;;;;;;5060743;28;20262;-80
2023/06/06 04:58:43;;;;;;;;;;;14.30;77.90;;;;;;5066151;28;19923;-81
2023/06/06 05:01:10;;;;;;;;;;;14.30;77.90;;;;;;5066755;28;19912;-83
2023/06/06 05:03:36;;;;;;;;;;;14.50;77.20;;;;;;5064232;28;19932;-83
2023/06/06 05:06:02;;;;;;;;;;;14.60;76.40;;;;;;5074332;28;20284;-83
2023/06/06 05:08:31;;;;;;;;;;;14.50;76.60;;;;;;5066920;28;19970;-83
2023/06/06 05:10:57;;;;;;;;;;;14.60;76.20;;;;;;5071170;28;19912;-88
2023/06/06 05:13:23;;;;;;;;;;;14.50;76.80;;;;;;5070529;28;19924;-83
2023/06/06 05:15:48;;;;;;;;;;;14.50;77.00;;;;;;5072393;28;19916;-84
2023/06/06 05:18:13;;;;;;;;;;;14.60;76.90;;;;;;5071057;28;19921;-85
2023/06/06 05:20:39;;;;;;;;;;;14.70;76.40;;;;;;5067529;28;19920;-84
2023/06/06 05:23:06;;;;;;;;;;;14.80;76.00;;;;;;5073844;28;19913;-84
2023/06/06 05:25:31;;;;;;;;;;;14.70;76.30;;;;;;5064703;28;19924;-84
2023/06/06 05:27:57;;;;;;;;;;;14.80;76.70;;;;;;5068275;28;19913;-84
2023/06/06 05:30:22;;;;;;;;;;;14.80;76.40;;;;;;5061295;28;19920;-83
2023/06/06 05:32:48;;;;;;;;;;;14.70;76.60;;;;;;5106203;22;20005;-81
2023/06/06 05:35:13;;;;;;;;;;;14.70;76.80;;;;;;5006540;28;21962;-81
2023/06/06 05:37:41;;;;;;;;;;;14.90;75.70;;;;;;5003756;28;19917;-81
2023/06/06 05:40:07;;;;;;;;;;;14.90;75.50;;;;;;4998077;28;19914;-81
2023/06/06 05:42:33;;;;;;;;;;;14.80;75.70;;;;;;5005088;28;19909;-81
2023/06/06 05:44:58;;;;;;;;;;;14.90;75.90;;;;;;5009938;28;19920;-82
2023/06/06 05:47:23;;;;;;;;;;;15.00;75.50;;;;;;5011733;28;19960;-82
2023/06/06 05:49:49;;;;;;;;;;;15.10;75.50;;;;;;5013396;28;19917;-82
2023/06/06 05:52:14;;;;;;;;;;;15.50;74.00;;;;;;5010125;28;19928;-82
2023/06/06 05:54:40;;;;;;;;;;;15.50;74.00;;;;;;5011353;28;19944;-83
2023/06/06 05:57:17;;;;;;;;;;;15.30;74.60;;;;;;5008898;28;19917;-81
2023/06/06 05:59:42;;;;;;;;;;;15.30;75.30;;;;;;5017016;28;20407;-82
2023/06/06 06:02:08;;;;;;;;;;;15.30;75.20;;;;;;5008858;28;19964;-83
2023/06/06 06:04:34;;;;;;;;;;;15.20;75.50;;;;;;5010931;28;19914;-83
2023/06/06 06:07:00;;;;;;;;;;;15.30;75.60;;;;;;5008888;28;20028;-82
2023/06/06 06:09:25;;;;;;;;;;;15.30;75.40;;;;;;5013815;28;20000;-82
2023/06/06 06:11:51;;;;;;;;;;;15.20;75.40;;;;;;5012523;28;20445;-85
2023/06/06 06:14:16;;;;;;;;;;;15.30;75.70;;;;;;5008287;28;20421;-83
2023/06/06 06:16:42;;;;;;;;;;;15.30;75.80;;;;;;5009963;28;20302;-84
2023/06/06 06:19:07;;;;;;;;;;;15.50;74.90;;;;;;5008807;28;19910;-84
2023/06/06 06:21:33;;;;;;;;;;;15.40;75.80;;;;;;5008646;28;19921;-82
2023/06/06 06:23:58;;;;;;;;;;;15.50;75.60;;;;;;5009944;28;20302;-83
2023/06/06 06:26:24;;;;;;;;;;;15.50;75.60;;;;;;5005840;28;19918;-81
2023/06/06 06:32:14;;;;;;;;;;;;;;;;;;;;;
2023/06/06 06:34:40;;;;;;;;;;;15.50;76.20;;;;;;5023877;28;19988;-84
2023/06/06 06:37:07;;;;;;;;;;;15.60;74.80;;;;;;5007220;28;19956;-82
2023/06/06 06:39:32;;;;;;;;;;;15.60;75.50;;;;;;5004820;28;20008;-84
2023/06/06 06:41:58;;;;;;;;;;;15.60;76.50;;;;;;5016379;28;19948;-84
2023/06/06 06:44:23;;;;;;;;;;;15.70;76.00;;;;;;5010014;28;19914;-83
2023/06/06 06:46:49;;;;;;;;;;;15.90;76.20;;;;;;5008427;28;19940;-81
2023/06/06 06:49:18;;;;;;;;;;;16.00;75.30;;;;;;5008530;28;19918;-83
2023/06/06 06:51:43;;;;;;;;;;;16.10;74.60;;;;;;5009122;28;19920;-82
2023/06/06 06:54:12;;;;;;;;;;;16.10;74.90;;;;;;5009782;28;19914;-82
2023/06/06 06:56:41;;;;;;;;;;;16.10;75.60;;;;;;5006118;28;19996;-82
2023/06/06 06:59:07;;;;;;;;;;;16.10;75.40;;;;;;5006562;28;19914;-82
2023/06/06 07:01:33;;;;;;;;;;;16.10;75.30;;;;;;5010709;28;19913;-82
2023/06/06 07:04:04;;;;;;;;;;;16.10;73.90;;;;;;5002668;28;19938;-86
2023/06/06 07:06:32;;;;;;;;;;;16.00;74.60;;;;;;5007771;28;19925;-82
2023/06/06 07:09:00;;;;;;;;;;;16.20;73.70;;;;;;5014444;28;19928;-85
2023/06/06 07:11:26;;;;;;;;;;;16.20;74.60;;;;;;5004655;28;20000;-82
2023/06/06 07:13:52;;;;;;;;;;;16.10;75.50;;;;;;5009865;28;20416;-82
2023/06/06 07:16:18;;;;;;;;;;;16.10;75.40;;;;;;5020511;28;19987;-83
2023/06/06 07:18:47;;;;;;;;;;;16.20;75.20;;;;;;5014404;28;19924;-82
2023/06/06 07:21:12;;;;;;;;;;;16.30;75.80;;;;;;5015497;28;19917;-83
2023/06/06 07:23:39;;;;;;;;;;;16.50;74.70;;;;;;5016984;28;19921;-81
2023/06/06 07:26:06;;;;;;;;;;;16.60;74.00;;;;;;5016436;28;19924;-83
2023/06/06 07:28:32;;;;;;;;;;;16.60;73.10;;;;;;5035735;28;20382;-83
2023/06/06 07:30:58;;;;;;;;;;;16.60;73.00;;;;;;5016957;28;19998;-83
2023/06/06 07:33:24;;;;;;;;;;;16.60;73.50;;;;;;5007646;28;19918;-83
2023/06/06 07:35:49;;;;;;;;;;;16.60;73.10;;;;;;5016719;28;19956;-83
2023/06/06 07:38:15;;;;;;;;;;;16.70;73.20;;;;;;5011479;28;19922;-83
2023/06/06 07:40:40;;;;;;;;;;;16.70;73.70;;;;;;5009379;28;19968;-82
2023/06/06 07:43:06;;;;;;;;;;;16.90;73.30;;;;;;5014783;28;19921;-84
2023/06/06 07:45:32;;;;;;;;;;;17.00;72.70;;;;;;5012556;28;20387;-82
2023/06/06 07:47:58;;;;;;;;;;;17.00;72.50;;;;;;5015503;28;20017;-83
2023/06/06 07:50:24;;;;;;;;;;;16.90;73.50;;;;;;5013608;28;19918;-83
2023/06/06 07:52:50;;;;;;;;;;;17.00;72.90;;;;;;5015288;28;19961;-82
2023/06/06 07:55:16;;;;;;;;;;;17.10;72.50;;;;;;5020665;28;19918;-84
2023/06/06 07:57:45;;;;;;;;;;;17.30;71.90;;;;;;5014283;28;19913;-84
2023/06/06 08:00:15;;;;;;;;;;;17.40;72.10;;;;;;5014823;28;19926;-83
2023/06/06 08:02:41;;;;;;;;;;;17.20;72.40;;;;;;5011656;28;19921;-83
2023/06/06 08:05:06;;;;;;;;;;;17.20;73.10;;;;;;5023317;28;19914;-84
2023/06/06 08:07:36;;;;;;;;;;;17.30;73.20;;;;;;5029070;28;19913;-83
2023/06/06 08:10:02;;;;;;;;;;;17.50;71.80;;;;;;5023559;28;19914;-84
2023/06/06 08:12:27;;;;;;;;;;;17.40;72.80;;;;;;5015400;28;19974;-84
2023/06/06 08:14:52;;;;;;;;;;;17.50;72.40;;;;;;5015154;28;19933;-84
2023/06/06 08:17:18;;;;;;;;;;;17.50;72.40;;;;;;5007240;28;19914;-84
2023/06/06 08:19:43;;;;;;;;;;;17.50;72.90;;;;;;5004105;28;20290;-85
2023/06/06 08:22:09;;;;;;;;;;;17.60;73.10;;;;;;5033177;28;20303;-84
2023/06/06 08:24:34;;;;;;;;;;;17.80;72.10;;;;;;5013335;28;19962;-84
2023/06/06 08:27:00;;;;;;;;;;;17.90;72.50;;;;;;5018056;28;19928;-83
2023/06/06 08:29:26;;;;;;;;;;;18.00;72.00;;;;;;5014276;28;20403;-84
2023/06/06 08:31:53;;;;;;;;;;;18.00;71.20;;;;;;5012666;28;19917;-84
2023/06/06 08:34:19;;;;;;;;;;;18.00;72.70;;;;;;5015850;28;19959;-84
2023/06/06 08:36:45;;;;;;;;;;;18.00;72.20;;;;;;5017147;28;19922;-84
2023/06/06 08:39:10;;;;;;;;;;;18.10;71.60;;;;;;5013205;28;20023;-83
2023/06/06 08:41:37;;;;;;;;;;;18.10;71.30;;;;;;5013922;28;19917;-83
2023/06/06 08:44:03;;;;;;;;;;;18.10;71.10;;;;;;5027512;28;19981;-82
2023/06/06 08:46:33;;;;;;;;;;;18.30;71.60;;;;;;5010131;28;20388;-83
2023/06/06 08:49:03;;;;;;;;;;;18.30;69.90;;;;;;5005224;28;20072;-82
2023/06/06 08:51:29;;;;;;;;;;;18.40;70.20;;;;;;4999826;28;19940;-84
2023/06/06 08:53:55;;;;;;;;;;;18.60;69.20;;;;;;5012522;28;20008;-83
2023/06/06 08:56:22;;;;;;;;;;;18.70;68.80;;;;;;5015545;28;19925;-84
2023/06/06 08:58:49;;;;;;;;;;;18.60;68.80;;;;;;5011837;28;19916;-83
2023/06/06 09:01:16;;;;;;;;;;;18.70;69.10;;;;;;5013886;28;20251;-83
2023/06/06 09:03:43;;;;;;;;;;;18.80;69.30;;;;;;5012256;28;19914;-83
2023/06/06 09:06:10;;;;;;;;;;;18.80;69.00;;;;;;5011606;28;19963;-84
2023/06/06 09:08:35;;;;;;;;;;;18.90;68.30;;;;;;5011783;28;20068;-83
2023/06/06 09:11:01;;;;;;;;;;;19.10;67.30;;;;;;5004305;28;19918;-83
2023/06/06 09:13:26;;;;;;;;;;;19.00;67.20;;;;;;5008557;28;20391;-84
2023/06/06 09:15:53;;;;;;;;;;;19.10;67.60;;;;;;5004667;28;20268;-84
2023/06/06 09:18:19;;;;;;;;;;;19.00;68.00;;;;;;5010446;28;20009;-84
2023/06/06 09:20:50;;;;;;;;;;;19.10;68.00;;;;;;5010482;28;19913;-84
2023/06/06 09:23:15;;;;;;;;;;;19.20;69.00;;;;;;5011750;28;19920;-84
2023/06/06 09:25:42;;;;;;;;;;;19.30;68.30;;;;;;5011183;28;19933;-84
2023/06/06 09:28:08;;;;;;;;;;;19.40;67.00;;;;;;5011539;28;19913;-84
2023/06/06 09:30:35;;;;;;;;;;;19.50;67.70;;;;;;5011169;28;19975;-84
2023/06/06 09:33:02;;;;;;;;;;;19.50;67.20;;;;;;5009405;28;19921;-84
2023/06/06 09:35:31;;;;;;;;;;;19.50;68.10;;;;;;5012522;28;20256;-85
2023/06/06 09:37:57;;;;;;;;;;;19.80;67.30;;;;;;5020672;28;19960;-84
2023/06/06 09:40:23;;;;;;;;;;;19.80;66.40;;;;;;5015554;28;19921;-85
2023/06/06 09:42:49;;;;;;;;;;;19.90;65.10;;;;;;5050809;28;20271;-85
2023/06/06 09:45:18;;;;;;;;;;;19.80;65.80;;;;;;5016063;28;19921;-85
2023/06/06 09:47:44;;;;;;;;;;;19.90;65.90;;;;;;5016537;28;20324;-85
2023/06/06 09:50:10;;;;;;;;;;;20.00;65.30;;;;;;5017763;28;19910;-84
2023/06/06 09:52:36;;;;;;;;;;;20.10;63.50;;;;;;5015407;28;19910;-85
2023/06/06 09:55:05;;;;;;;;;;;20.10;64.60;;;;;;5015223;28;20376;-85
2023/06/06 09:57:31;;;;;;;;;;;20.20;64.20;;;;;;5013505;28;20383;-85
2023/06/06 09:59:58;;;;;;;;;;;20.20;64.30;;;;;;5015346;28;19909;-84
2023/06/06 10:02:25;;;;;;;;;;;20.20;63.60;;;;;;5014642;28;20292;-84
2023/06/06 10:04:51;;;;;;;;;;;20.20;64.10;;;;;;5009560;28;19921;-84
2023/06/06 10:07:17;;;;;;;;;;;20.30;63.90;;;;;;5010070;28;19963;-86
2023/06/06 10:09:46;;;;;;;;;;;20.30;62.10;;;;;;5017864;28;19914;-85
2023/06/06 10:12:12;;;;;;;;;;;20.30;61.70;;;;;;5016134;28;19921;-85
2023/06/06 10:14:38;;;;;;;;;;;20.50;61.80;;;;;;5017831;28;20297;-84
2023/06/06 10:17:06;;;;;;;;;;;20.50;63.20;;;;;;5029297;28;19917;-85
2023/06/06 10:19:36;;;;;;;;;;;20.60;61.00;;;;;;5014318;28;19913;-85
2023/06/06 10:22:02;;;;;;;;;;;20.80;61.10;;;;;;5004160;28;19918;-85
2023/06/06 10:24:28;;;;;;;;;;;20.80;60.40;;;;;;5008544;28;20017;-84
2023/06/06 10:26:53;;;;;;;;;;;21.10;60.50;;;;;;5012526;28;19918;-84
2023/06/06 10:29:42;;;;;;;;;;;21.10;60.50;;;;;;5013055;28;19910;-84
2023/06/06 10:32:12;;;;;;;;;;;21.20;58.90;;;;;;5011377;28;20008;-84
2023/06/06 10:34:40;;;;;;;;;;;21.10;60.00;;;;;;5009200;28;19996;-86
2023/06/06 10:37:25;;;;;;;;;;;21.00;59.10;;;;;;5009749;28;19974;-85
2023/06/06 10:39:59;;;;;;;;;;;21.10;59.70;;;;;;5010785;28;19918;-88
2023/06/06 10:42:34;;;;;;;;;;;20.80;60.00;;;;;;5011888;28;19910;-88
2023/06/06 10:45:02;;;;;;;;;;;20.80;60.00;;;;;;5010656;28;20004;-87
2023/06/06 10:47:30;;;;;;;;;;;20.80;61.40;;;;;;5000836;28;20391;-88
2023/06/06 10:50:08;;;;;;;;;;;20.90;59.30;;;;;;5017445;28;19952;-86
2023/06/06 10:53:05;;;;;;;;;;;20.90;60.40;;;;;;5005821;28;19928;-82
2023/06/06 10:55:30;;;;;;;;;;;21.00;61.40;;;;;;5000604;28;19922;-86
2023/06/06 10:58:02;;;;;;;;;;;21.10;60.00;;;;;;5021752;28;19976;-86
2023/06/06 11:00:30;;;;;;;;;;;21.20;60.10;;;;;;5005541;28;19909;-86
2023/06/06 11:02:58;;;;;;;;;;;21.30;60.30;;;;;;5007890;28;19921;-86
2023/06/06 11:05:24;;;;;;;;;;;21.50;57.60;;;;;;5015594;28;19936;-86
2023/06/06 11:07:50;;;;;;;;;;;21.50;59.20;;;;;;5027871;28;19914;-86
2023/06/06 11:10:21;;;;;;;;;;;21.40;59.70;;;;;;5010966;28;20273;-86
2023/06/06 11:12:50;;;;;;;;;;;21.50;56.80;;;;;;5019993;28;19940;-87
2023/06/06 11:15:32;;;;;;;;;;;21.60;56.10;;;;;;5015626;28;19910;-86
2023/06/06 11:18:02;;;;;;;;;;;21.60;57.10;;;;;;5023104;28;19987;-86
2023/06/06 11:20:28;;;;;;;;;;;21.70;56.70;;;;;;5014979;28;19913;-86
2023/06/06 11:23:02;;;;;;;;;;;21.80;57.10;;;;;;5012686;28;20417;-87
2023/06/06 11:25:31;;;;;;;;;;;22.00;56.40;;;;;;5011239;28;19917;-86
2023/06/06 11:28:00;;;;;;;;;;;22.00;57.20;;;;;;5028353;28;20012;-86
2023/06/06 11:30:32;;;;;;;;;;;22.10;56.80;;;;;;5002373;28;19913;-86
2023/06/06 11:32:59;;;;;;;;;;;22.10;55.20;;;;;;5007396;28;20395;-86
2023/06/06 11:35:27;;;;;;;;;;;22.40;54.00;;;;;;5035950;22;19961;-86
2023/06/06 11:37:53;;;;;;;;;;;22.50;56.20;;;;;;5021920;28;19917;-85
2023/06/06 11:40:19;;;;;;;;;;;22.50;54.80;;;;;;5035054;28;19913;-86
2023/06/06 11:42:45;;;;;;;;;;;22.70;53.00;;;;;;5043478;28;19937;-86
2023/06/06 11:45:12;;;;;;;;;;;22.60;54.40;;;;;;5047373;28;19906;-83
2023/06/06 11:47:37;;;;;;;;;;;22.70;55.30;;;;;;5032997;28;19932;-83
2023/06/06 11:50:03;;;;;;;;;;;22.80;54.80;;;;;;5028855;28;19913;-84
2023/06/06 11:52:28;;;;;;;;;;;22.70;52.90;;;;;;5029008;28;20606;-83
2023/06/06 11:55:04;;;;;;;;;;;22.90;52.10;;;;;;5027422;28;20058;-83
2023/06/06 11:57:31;;;;;;;;;;;23.00;53.90;;;;;;5026260;28;19920;-83
2023/06/06 11:59:59;;;;;;;;;;;23.00;51.90;;;;;;5026655;28;19913;-83
2023/06/06 12:02:24;;;;;;;;;;;23.10;54.10;;;;;;5032330;28;19915;-85
2023/06/06 12:04:50;;;;;;;;;;;23.10;53.80;;;;;;5030475;28;20339;-85
2023/06/06 12:07:15;;;;;;;;;;;23.30;52.50;;;;;;5028188;28;19928;-84
2023/06/06 12:09:41;;;;;;;;;;;23.30;51.60;;;;;;5032206;28;19952;-84
2023/06/06 12:12:10;;;;;;;;;;;23.20;52.80;;;;;;5033274;28;20003;-84
2023/06/06 12:14:35;;;;;;;;;;;23.30;52.50;;;;;;5027633;28;19916;-84
2023/06/06 12:17:02;;;;;;;;;;;23.50;51.30;;;;;;5031296;28;19995;-84
2023/06/06 12:19:30;;;;;;;;;;;23.50;48.70;;;;;;5031561;28;20012;-85
2023/06/06 12:21:56;;;;;;;;;;;23.50;47.80;;;;;;5032272;28;19913;-85
2023/06/06 12:24:22;;;;;;;;;;;23.60;47.70;;;;;;5030284;28;20438;-85
2023/06/06 12:26:53;;;;;;;;;;;23.60;51.00;;;;;;5020931;28;19917;-84
2023/06/06 12:29:30;;;;;;;;;;;23.60;48.80;;;;;;5030214;28;19959;-85
2023/06/06 12:32:14;;;;;;;;;;;23.70;49.30;;;;;;5030564;28;19970;-85
2023/06/06 12:34:42;;;;;;;;;;;23.80;47.10;;;;;;5029291;28;19913;-84
2023/06/06 12:37:09;;;;;;;;;;;23.80;48.80;;;;;;5030479;28;20061;-85
2023/06/06 12:39:37;;;;;;;;;;;24.00;48.10;;;;;;5029116;28;19920;-85
2023/06/06 12:42:10;;;;;;;;;;;24.10;47.20;;;;;;5030450;28;19993;-86
2023/06/06 12:44:36;;;;;;;;;;;24.00;46.50;;;;;;5030690;28;19917;-85
2023/06/06 12:47:01;;;;;;;;;;;23.90;45.80;;;;;;5031508;28;20049;-86
2023/06/06 12:49:27;;;;;;;;;;;23.90;46.10;;;;;;5038524;28;19909;-86
2023/06/06 12:51:52;;;;;;;;;;;24.00;45.60;;;;;;5031042;28;20095;-85
2023/06/06 12:54:17;;;;;;;;;;;24.00;46.10;;;;;;5031411;28;19913;-84
2023/06/06 12:56:43;;;;;;;;;;;24.10;45.90;;;;;;5032826;28;19920;-85
2023/06/06 12:59:08;;;;;;;;;;;24.00;46.50;;;;;;5026371;28;19913;-85
2023/06/06 13:01:34;;;;;;;;;;;24.10;45.30;;;;;;5031988;28;19920;-85
2023/06/06 13:03:59;;;;;;;;;;;24.20;45.20;;;;;;5029791;28;19917;-88
2023/06/06 13:06:25;;;;;;;;;;;24.40;46.30;;;;;;5025607;28;19995;-86
2023/06/06 13:08:50;;;;;;;;;;;24.30;47.00;;;;;;5024046;28;19936;-86
2023/06/06 13:11:16;;;;;;;;;;;24.50;45.90;;;;;;5028363;28;20063;-87
2023/06/06 13:13:41;;;;;;;;;;;24.50;46.90;;;;;;5029620;28;19920;-87
2023/06/06 13:16:07;;;;;;;;;;;24.40;46.60;;;;;;5026619;28;20582;-87
2023/06/06 13:18:37;;;;;;;;;;;24.50;47.20;;;;;;5030636;28;19975;-88
2023/06/06 13:21:03;;;;;;;;;;;24.50;43.90;;;;;;5027173;28;19919;-88
2023/06/06 13:23:29;;;;;;;;;;;24.30;46.40;;;;;;5029597;28;19927;-87
2023/06/06 13:25:58;;;;;;;;;;;24.40;44.70;;;;;;5025390;28;20350;-86
2023/06/06 13:28:23;;;;;;;;;;;24.50;44.00;;;;;;5027708;28;19913;-88
2023/06/06 13:30:49;;;;;;;;;;;24.50;43.40;;;;;;5030755;28;20379;-88
2023/06/06 13:33:15;;;;;;;;;;;24.50;42.80;;;;;;5026582;28;20488;-86
2023/06/06 13:35:40;;;;;;;;;;;24.10;46.50;;;;;;5026143;28;20316;-87
2023/06/06 13:38:06;;;;;;;;;;;24.00;45.10;;;;;;5031394;28;19913;-87
2023/06/06 13:40:32;;;;;;;;;;;23.80;45.20;;;;;;5034634;28;20421;-88
2023/06/06 13:42:58;;;;;;;;;;;23.70;45.50;;;;;;5030286;28;20387;-87
2023/06/06 13:45:23;;;;;;;;;;;23.70;46.90;;;;;;5028918;28;19918;-91
2023/06/06 13:47:49;;;;;;;;;;;23.80;46.10;;;;;;5025132;28;19921;-87
2023/06/06 13:50:15;;;;;;;;;;;23.90;47.50;;;;;;5031090;28;20408;-85
2023/06/06 13:52:43;;;;;;;;;;;24.00;47.10;;;;;;5027050;28;19917;-88
2023/06/06 13:55:08;;;;;;;;;;;24.00;44.60;;;;;;5024346;28;19914;-88
2023/06/06 13:57:40;;;;;;;;;;;24.00;44.60;;;;;;5029728;28;20684;-88
2023/06/06 14:00:11;;;;;;;;;;;24.10;45.30;;;;;;5028364;28;20390;-86
2023/06/06 14:02:39;;;;;;;;;;;24.20;46.70;;;;;;5023032;28;19928;-87
2023/06/06 14:05:05;;;;;;;;;;;24.30;45.40;;;;;;5045207;28;19936;-87
2023/06/06 14:07:33;;;;;;;;;;;24.40;45.10;;;;;;5021623;28;20411;-89
2023/06/06 14:10:01;;;;;;;;;;;24.50;44.40;;;;;;5028486;28;21417;-89
2023/06/06 14:12:26;;;;;;;;;;;24.50;45.60;;;;;;5028241;28;20003;-87
2023/06/06 14:14:52;;;;;;;;;;;24.30;46.10;;;;;;5032539;28;19917;-87
2023/06/06 14:17:19;;;;;;;;;;;24.30;45.70;;;;;;5025189;28;20249;-87
2023/06/06 14:19:50;;;;;;;;;;;24.20;45.70;;;;;;5029556;28;19909;-86